sensor_id;sensor_type;location;lat;lon;timestamp;P1;durP1;ratioP1;P2;durP2;ratioP2
51872;SDS011;52863;52.504;13.480;2022-10-26T00:01:05;30.57;;;15.00;;
51872;SDS011;52863;52.504;13.480;2022-10-26T00:03:32;19.70;;;13.43;;
51872;SDS011;52863;52.504;13.480;2022-10-26T00:06:04;16.77;;;10.83;;
51872;SDS011;52863;52.504;13.480;2022-10-26T00:08:32;18.37;;;11.23;;
51872;SDS011;52863;52.504;13.480;2022-10-26T00:11:00;18.00;;;10.63;;
51872;SDS011;52863;52.504;13.480;2022-10-26T00:13:27;19.30;;;11.43;;
51872;SDS011;52863;52.504;13.480;2022-10-26T00:15:54;26.53;;;13.03;;
51872;SDS011;52863;52.504;13.480;2022-10-26T00:18:21;26.00;;;14.20;;
51872;SDS011;52863;52.504;13.480;2022-10-26T00:20:48;24.80;;;13.83;;
51872;SDS011;52863;52.504;13.480;2022-10-26T00:23:14;28.70;;;15.47;;
51872;SDS011;52863;52.504;13.480;2022-10-26T00:25:42;29.97;;;15.57;;
51872;SDS011;52863;52.504;13.480;2022-10-26T00:28:08;25.70;;;14.20;;
51872;SDS011;52863;52.504;13.480;2022-10-26T00:30:37;22.47;;;13.97;;
51872;SDS011;52863;52.504;13.480;2022-10-26T00:33:04;25.90;;;15.17;;
51872;SDS011;52863;52.504;13.480;2022-10-26T00:35:32;18.07;;;10.53;;
51872;SDS011;52863;52.504;13.480;2022-10-26T00:38:12;24.60;;;13.10;;
51872;SDS011;52863;52.504;13.480;2022-10-26T00:40:43;25.30;;;13.60;;
51872;SDS011;52863;52.504;13.480;2022-10-26T00:43:13;19.47;;;11.70;;
51872;SDS011;52863;52.504;13.480;2022-10-26T00:45:41;22.60;;;12.63;;
51872;SDS011;52863;52.504;13.480;2022-10-26T00:48:10;19.63;;;12.00;;
51872;SDS011;52863;52.504;13.480;2022-10-26T00:50:44;21.80;;;12.27;;
51872;SDS011;52863;52.504;13.480;2022-10-26T00:53:13;21.70;;;11.90;;
51872;SDS011;52863;52.504;13.480;2022-10-26T00:55:42;27.87;;;14.87;;
51872;SDS011;52863;52.504;13.480;2022-10-26T00:58:12;25.57;;;13.53;;
51872;SDS011;52863;52.504;13.480;2022-10-26T01:00:40;23.43;;;13.20;;
51872;SDS011;52863;52.504;13.480;2022-10-26T01:03:08;27.57;;;13.97;;
51872;SDS011;52863;52.504;13.480;2022-10-26T01:05:36;27.70;;;14.87;;
51872;SDS011;52863;52.504;13.480;2022-10-26T01:08:05;28.23;;;14.43;;
51872;SDS011;52863;52.504;13.480;2022-10-26T01:10:33;28.17;;;14.17;;
51872;SDS011;52863;52.504;13.480;2022-10-26T01:13:01;25.03;;;12.70;;
51872;SDS011;52863;52.504;13.480;2022-10-26T01:15:29;23.17;;;14.10;;
51872;SDS011;52863;52.504;13.480;2022-10-26T01:18:06;29.30;;;14.17;;
51872;SDS011;52863;52.504;13.480;2022-10-26T01:20:51;29.97;;;14.43;;
51872;SDS011;52863;52.504;13.480;2022-10-26T01:23:33;29.50;;;15.83;;
51872;SDS011;52863;52.504;13.480;2022-10-26T01:26:15;22.90;;;13.97;;
51872;SDS011;52863;52.504;13.480;2022-10-26T01:29:02;22.20;;;12.50;;
51872;SDS011;52863;52.504;13.480;2022-10-26T01:31:46;27.83;;;14.33;;
51872;SDS011;52863;52.504;13.480;2022-10-26T01:34:18;31.70;;;15.33;;
51872;SDS011;52863;52.504;13.480;2022-10-26T01:36:48;28.93;;;15.00;;
51872;SDS011;52863;52.504;13.480;2022-10-26T01:39:20;29.03;;;14.03;;
51872;SDS011;52863;52.504;13.480;2022-10-26T01:41:56;24.70;;;13.40;;
51872;SDS011;52863;52.504;13.480;2022-10-26T01:44:25;26.80;;;14.27;;
51872;SDS011;52863;52.504;13.480;2022-10-26T01:46:56;32.80;;;15.40;;
51872;SDS011;52863;52.504;13.480;2022-10-26T01:49:25;27.70;;;14.60;;
51872;SDS011;52863;52.504;13.480;2022-10-26T01:51:54;22.03;;;13.00;;
51872;SDS011;52863;52.504;13.480;2022-10-26T01:54:21;30.13;;;13.33;;
51872;SDS011;52863;52.504;13.480;2022-10-26T01:56:48;22.03;;;12.60;;
51872;SDS011;52863;52.504;13.480;2022-10-26T02:08:04;29.40;;;13.70;;
51872;SDS011;52863;52.504;13.480;2022-10-26T02:10:42;28.43;;;14.27;;
51872;SDS011;52863;52.504;13.480;2022-10-26T02:13:18;27.33;;;13.63;;
51872;SDS011;52863;52.504;13.480;2022-10-26T02:15:56;26.40;;;12.97;;
51872;SDS011;52863;52.504;13.480;2022-10-26T02:18:28;25.70;;;12.63;;
51872;SDS011;52863;52.504;13.480;2022-10-26T02:20:58;22.70;;;12.57;;
51872;SDS011;52863;52.504;13.480;2022-10-26T02:23:28;23.43;;;12.30;;
51872;SDS011;52863;52.504;13.480;2022-10-26T02:25:57;27.33;;;12.53;;
51872;SDS011;52863;52.504;13.480;2022-10-26T02:28:27;28.13;;;13.73;;
51872;SDS011;52863;52.504;13.480;2022-10-26T02:30:58;27.67;;;13.90;;
51872;SDS011;52863;52.504;13.480;2022-10-26T02:33:27;28.07;;;13.63;;
51872;SDS011;52863;52.504;13.480;2022-10-26T02:35:57;28.47;;;13.53;;
51872;SDS011;52863;52.504;13.480;2022-10-26T02:38:27;24.73;;;12.53;;
51872;SDS011;52863;52.504;13.480;2022-10-26T02:40:55;26.90;;;12.80;;
51872;SDS011;52863;52.504;13.480;2022-10-26T02:43:22;31.93;;;14.93;;
51872;SDS011;52863;52.504;13.480;2022-10-26T02:45:51;20.13;;;11.83;;
51872;SDS011;52863;52.504;13.480;2022-10-26T02:48:22;25.83;;;13.57;;
51872;SDS011;52863;52.504;13.480;2022-10-26T02:50:50;23.00;;;12.43;;
51872;SDS011;52863;52.504;13.480;2022-10-26T02:53:24;22.93;;;11.97;;
51872;SDS011;52863;52.504;13.480;2022-10-26T02:55:56;19.87;;;11.70;;
51872;SDS011;52863;52.504;13.480;2022-10-26T02:58:29;26.07;;;11.43;;
51872;SDS011;52863;52.504;13.480;2022-10-26T03:00:57;29.33;;;14.33;;
51872;SDS011;52863;52.504;13.480;2022-10-26T03:03:25;22.73;;;11.63;;
51872;SDS011;52863;52.504;13.480;2022-10-26T03:05:52;32.23;;;14.83;;
51872;SDS011;52863;52.504;13.480;2022-10-26T03:08:19;26.60;;;14.33;;
51872;SDS011;52863;52.504;13.480;2022-10-26T03:10:46;26.07;;;13.20;;
51872;SDS011;52863;52.504;13.480;2022-10-26T03:13:13;23.87;;;12.67;;
51872;SDS011;52863;52.504;13.480;2022-10-26T03:15:40;22.13;;;12.03;;
51872;SDS011;52863;52.504;13.480;2022-10-26T03:18:07;22.07;;;11.93;;
51872;SDS011;52863;52.504;13.480;2022-10-26T03:20:34;28.63;;;14.17;;
51872;SDS011;52863;52.504;13.480;2022-10-26T03:23:01;24.23;;;13.47;;
51872;SDS011;52863;52.504;13.480;2022-10-26T03:25:28;31.23;;;14.47;;
51872;SDS011;52863;52.504;13.480;2022-10-26T03:27:56;31.63;;;15.07;;
51872;SDS011;52863;52.504;13.480;2022-10-26T03:30:23;26.00;;;14.27;;
51872;SDS011;52863;52.504;13.480;2022-10-26T03:32:50;26.10;;;13.53;;
51872;SDS011;52863;52.504;13.480;2022-10-26T03:35:17;22.83;;;13.07;;
51872;SDS011;52863;52.504;13.480;2022-10-26T03:37:44;31.93;;;13.53;;
51872;SDS011;52863;52.504;13.480;2022-10-26T03:40:11;26.10;;;11.80;;
51872;SDS011;52863;52.504;13.480;2022-10-26T03:42:38;25.17;;;11.83;;
51872;SDS011;52863;52.504;13.480;2022-10-26T03:45:07;31.87;;;14.20;;
51872;SDS011;52863;52.504;13.480;2022-10-26T03:47:39;30.63;;;12.57;;
51872;SDS011;52863;52.504;13.480;2022-10-26T03:50:09;21.67;;;11.23;;
51872;SDS011;52863;52.504;13.480;2022-10-26T03:52:36;26.70;;;12.40;;
51872;SDS011;52863;52.504;13.480;2022-10-26T03:55:04;29.37;;;13.37;;
51872;SDS011;52863;52.504;13.480;2022-10-26T03:57:31;26.07;;;13.43;;
51872;SDS011;52863;52.504;13.480;2022-10-26T03:59:58;27.30;;;13.40;;
51872;SDS011;52863;52.504;13.480;2022-10-26T04:02:26;33.10;;;14.23;;
51872;SDS011;52863;52.504;13.480;2022-10-26T04:04:53;34.97;;;14.87;;
51872;SDS011;52863;52.504;13.480;2022-10-26T04:07:20;24.93;;;13.27;;
51872;SDS011;52863;52.504;13.480;2022-10-26T04:09:46;30.93;;;14.07;;
51872;SDS011;52863;52.504;13.480;2022-10-26T04:12:13;29.73;;;13.97;;
51872;SDS011;52863;52.504;13.480;2022-10-26T04:14:40;22.93;;;13.97;;
51872;SDS011;52863;52.504;13.480;2022-10-26T04:17:07;25.90;;;13.27;;
51872;SDS011;52863;52.504;13.480;2022-10-26T04:19:35;26.77;;;12.90;;
51872;SDS011;52863;52.504;13.480;2022-10-26T04:22:01;33.20;;;13.07;;
51872;SDS011;52863;52.504;13.480;2022-10-26T04:24:28;27.80;;;13.60;;
51872;SDS011;52863;52.504;13.480;2022-10-26T04:26:55;31.60;;;14.50;;
51872;SDS011;52863;52.504;13.480;2022-10-26T04:29:22;22.60;;;13.23;;
51872;SDS011;52863;52.504;13.480;2022-10-26T04:31:49;32.50;;;15.43;;
51872;SDS011;52863;52.504;13.480;2022-10-26T04:34:16;26.33;;;14.23;;
51872;SDS011;52863;52.504;13.480;2022-10-26T04:36:43;30.10;;;14.00;;
51872;SDS011;52863;52.504;13.480;2022-10-26T04:39:10;31.63;;;13.80;;
51872;SDS011;52863;52.504;13.480;2022-10-26T04:41:37;30.07;;;13.73;;
51872;SDS011;52863;52.504;13.480;2022-10-26T04:44:04;32.40;;;14.20;;
51872;SDS011;52863;52.504;13.480;2022-10-26T04:46:30;30.43;;;14.50;;
51872;SDS011;52863;52.504;13.480;2022-10-26T04:48:57;25.80;;;14.17;;
51872;SDS011;52863;52.504;13.480;2022-10-26T04:51:24;30.57;;;14.20;;
51872;SDS011;52863;52.504;13.480;2022-10-26T04:53:52;23.47;;;12.70;;
51872;SDS011;52863;52.504;13.480;2022-10-26T04:56:19;23.67;;;12.33;;
51872;SDS011;52863;52.504;13.480;2022-10-26T04:58:46;24.20;;;12.33;;
51872;SDS011;52863;52.504;13.480;2022-10-26T05:01:13;25.73;;;12.90;;
51872;SDS011;52863;52.504;13.480;2022-10-26T05:03:40;26.40;;;12.73;;
51872;SDS011;52863;52.504;13.480;2022-10-26T05:06:06;23.83;;;12.67;;
51872;SDS011;52863;52.504;13.480;2022-10-26T05:08:33;27.07;;;13.87;;
51872;SDS011;52863;52.504;13.480;2022-10-26T05:11:01;27.80;;;14.17;;
51872;SDS011;52863;52.504;13.480;2022-10-26T05:13:27;28.37;;;13.77;;
51872;SDS011;52863;52.504;13.480;2022-10-26T05:15:54;31.00;;;14.87;;
51872;SDS011;52863;52.504;13.480;2022-10-26T05:18:21;29.33;;;14.30;;
51872;SDS011;52863;52.504;13.480;2022-10-26T05:20:50;35.77;;;14.77;;
51872;SDS011;52863;52.504;13.480;2022-10-26T05:23:17;30.67;;;14.03;;
51872;SDS011;52863;52.504;13.480;2022-10-26T05:25:44;28.97;;;14.47;;
51872;SDS011;52863;52.504;13.480;2022-10-26T05:28:12;30.17;;;14.73;;
51872;SDS011;52863;52.504;13.480;2022-10-26T05:30:40;32.67;;;13.93;;
51872;SDS011;52863;52.504;13.480;2022-10-26T05:33:08;37.13;;;14.50;;
51872;SDS011;52863;52.504;13.480;2022-10-26T05:35:36;37.63;;;15.17;;
51872;SDS011;52863;52.504;13.480;2022-10-26T05:38:05;50.37;;;17.17;;
51872;SDS011;52863;52.504;13.480;2022-10-26T05:40:33;51.30;;;16.70;;
51872;SDS011;52863;52.504;13.480;2022-10-26T05:43:00;50.40;;;14.67;;
51872;SDS011;52863;52.504;13.480;2022-10-26T05:45:28;41.60;;;13.77;;
51872;SDS011;52863;52.504;13.480;2022-10-26T05:47:55;61.73;;;14.60;;
51872;SDS011;52863;52.504;13.480;2022-10-26T05:50:27;45.80;;;13.80;;
51872;SDS011;52863;52.504;13.480;2022-10-26T05:52:54;54.13;;;14.77;;
51872;SDS011;52863;52.504;13.480;2022-10-26T05:55:21;47.13;;;14.63;;
51872;SDS011;52863;52.504;13.480;2022-10-26T05:57:48;36.57;;;12.80;;
51872;SDS011;52863;52.504;13.480;2022-10-26T06:00:17;50.40;;;14.27;;
51872;SDS011;52863;52.504;13.480;2022-10-26T06:02:49;63.30;;;14.23;;
51872;SDS011;52863;52.504;13.480;2022-10-26T06:05:37;50.50;;;13.10;;
51872;SDS011;52863;52.504;13.480;2022-10-26T06:08:10;55.17;;;13.07;;
51872;SDS011;52863;52.504;13.480;2022-10-26T06:10:38;41.07;;;13.77;;
51872;SDS011;52863;52.504;13.480;2022-10-26T06:13:05;75.40;;;14.40;;
51872;SDS011;52863;52.504;13.480;2022-10-26T06:15:33;64.03;;;14.40;;
51872;SDS011;52863;52.504;13.480;2022-10-26T06:18:15;62.70;;;14.37;;
51872;SDS011;52863;52.504;13.480;2022-10-26T06:20:49;57.60;;;13.57;;
51872;SDS011;52863;52.504;13.480;2022-10-26T06:23:31;36.30;;;12.63;;
51872;SDS011;52863;52.504;13.480;2022-10-26T06:26:12;31.73;;;12.83;;
51872;SDS011;52863;52.504;13.480;2022-10-26T06:28:48;37.17;;;12.60;;
51872;SDS011;52863;52.504;13.480;2022-10-26T06:31:18;39.37;;;13.70;;
51872;SDS011;52863;52.504;13.480;2022-10-26T06:33:46;34.50;;;13.20;;
51872;SDS011;52863;52.504;13.480;2022-10-26T06:36:17;37.07;;;14.23;;
51872;SDS011;52863;52.504;13.480;2022-10-26T06:38:47;43.63;;;15.93;;
51872;SDS011;52863;52.504;13.480;2022-10-26T06:41:16;56.97;;;21.90;;
51872;SDS011;52863;52.504;13.480;2022-10-26T06:43:44;58.87;;;24.40;;
51872;SDS011;52863;52.504;13.480;2022-10-26T06:46:13;57.17;;;25.53;;
51872;SDS011;52863;52.504;13.480;2022-10-26T06:48:50;54.20;;;25.07;;
51872;SDS011;52863;52.504;13.480;2022-10-26T06:51:23;53.97;;;25.20;;
51872;SDS011;52863;52.504;13.480;2022-10-26T06:53:51;52.60;;;24.40;;
51872;SDS011;52863;52.504;13.480;2022-10-26T06:56:25;51.40;;;21.57;;
51872;SDS011;52863;52.504;13.480;2022-10-26T06:58:52;44.83;;;20.63;;
51872;SDS011;52863;52.504;13.480;2022-10-26T07:01:21;48.83;;;23.37;;
51872;SDS011;52863;52.504;13.480;2022-10-26T07:03:47;52.37;;;30.17;;
51872;SDS011;52863;52.504;13.480;2022-10-26T07:06:15;67.80;;;33.80;;
51872;SDS011;52863;52.504;13.480;2022-10-26T07:08:42;75.47;;;35.00;;
51872;SDS011;52863;52.504;13.480;2022-10-26T07:11:09;69.17;;;28.47;;
51872;SDS011;52863;52.504;13.480;2022-10-26T07:13:36;65.43;;;29.47;;
51872;SDS011;52863;52.504;13.480;2022-10-26T07:16:03;49.90;;;24.53;;
51872;SDS011;52863;52.504;13.480;2022-10-26T07:18:30;56.50;;;27.67;;
51872;SDS011;52863;52.504;13.480;2022-10-26T07:20:57;64.10;;;29.23;;
51872;SDS011;52863;52.504;13.480;2022-10-26T07:23:24;48.57;;;24.57;;
51872;SDS011;52863;52.504;13.480;2022-10-26T07:25:51;46.30;;;22.80;;
51872;SDS011;52863;52.504;13.480;2022-10-26T07:28:18;36.27;;;20.90;;
51872;SDS011;52863;52.504;13.480;2022-10-26T07:30:44;30.73;;;19.73;;
51872;SDS011;52863;52.504;13.480;2022-10-26T07:33:12;25.93;;;16.57;;
51872;SDS011;52863;52.504;13.480;2022-10-26T07:35:39;18.57;;;11.03;;
51872;SDS011;52863;52.504;13.480;2022-10-26T07:38:07;13.77;;;10.97;;
51872;SDS011;52863;52.504;13.480;2022-10-26T07:40:34;13.50;;;9.90;;
51872;SDS011;52863;52.504;13.480;2022-10-26T07:43:02;10.33;;;7.83;;
51872;SDS011;52863;52.504;13.480;2022-10-26T07:45:29;11.13;;;8.10;;
51872;SDS011;52863;52.504;13.480;2022-10-26T07:47:56;9.10;;;6.60;;
51872;SDS011;52863;52.504;13.480;2022-10-26T07:50:23;8.73;;;6.13;;
51872;SDS011;52863;52.504;13.480;2022-10-26T07:52:50;8.40;;;6.50;;
51872;SDS011;52863;52.504;13.480;2022-10-26T07:55:18;11.77;;;6.10;;
51872;SDS011;52863;52.504;13.480;2022-10-26T07:57:45;7.43;;;5.90;;
51872;SDS011;52863;52.504;13.480;2022-10-26T08:00:19;7.40;;;5.83;;
51872;SDS011;52863;52.504;13.480;2022-10-26T08:02:46;7.03;;;5.67;;
51872;SDS011;52863;52.504;13.480;2022-10-26T08:05:13;7.43;;;4.97;;
51872;SDS011;52863;52.504;13.480;2022-10-26T08:07:40;6.50;;;5.90;;
51872;SDS011;52863;52.504;13.480;2022-10-26T08:10:08;8.30;;;5.20;;
51872;SDS011;52863;52.504;13.480;2022-10-26T08:12:36;7.23;;;5.53;;
51872;SDS011;52863;52.504;13.480;2022-10-26T08:15:03;8.23;;;5.30;;
51872;SDS011;52863;52.504;13.480;2022-10-26T08:17:31;6.70;;;5.47;;
51872;SDS011;52863;52.504;13.480;2022-10-26T08:19:58;7.87;;;5.83;;
51872;SDS011;52863;52.504;13.480;2022-10-26T08:22:27;7.17;;;5.77;;
51872;SDS011;52863;52.504;13.480;2022-10-26T08:24:54;9.67;;;6.33;;
51872;SDS011;52863;52.504;13.480;2022-10-26T08:27:21;6.63;;;5.97;;
51872;SDS011;52863;52.504;13.480;2022-10-26T08:29:49;8.13;;;6.10;;
51872;SDS011;52863;52.504;13.480;2022-10-26T08:32:15;11.53;;;6.43;;
51872;SDS011;52863;52.504;13.480;2022-10-26T08:34:42;11.87;;;6.07;;
51872;SDS011;52863;52.504;13.480;2022-10-26T08:37:09;9.93;;;6.20;;
51872;SDS011;52863;52.504;13.480;2022-10-26T08:39:36;9.43;;;6.10;;
51872;SDS011;52863;52.504;13.480;2022-10-26T08:42:04;10.23;;;7.07;;
51872;SDS011;52863;52.504;13.480;2022-10-26T08:44:38;7.90;;;6.30;;
51872;SDS011;52863;52.504;13.480;2022-10-26T08:47:11;8.13;;;6.13;;
51872;SDS011;52863;52.504;13.480;2022-10-26T08:49:42;8.57;;;6.63;;
51872;SDS011;52863;52.504;13.480;2022-10-26T08:52:13;10.27;;;6.87;;
51872;SDS011;52863;52.504;13.480;2022-10-26T08:54:43;12.13;;;7.40;;
51872;SDS011;52863;52.504;13.480;2022-10-26T08:57:16;10.63;;;7.27;;
51872;SDS011;52863;52.504;13.480;2022-10-26T08:59:48;11.47;;;7.23;;
51872;SDS011;52863;52.504;13.480;2022-10-26T09:02:21;13.63;;;7.67;;
51872;SDS011;52863;52.504;13.480;2022-10-26T09:04:49;10.97;;;7.13;;
51872;SDS011;52863;52.504;13.480;2022-10-26T09:07:24;11.93;;;7.47;;
51872;SDS011;52863;52.504;13.480;2022-10-26T09:10:03;9.13;;;6.87;;
51872;SDS011;52863;52.504;13.480;2022-10-26T09:12:42;9.73;;;7.40;;
51872;SDS011;52863;52.504;13.480;2022-10-26T09:15:16;9.60;;;6.73;;
51872;SDS011;52863;52.504;13.480;2022-10-26T09:17:52;11.60;;;7.50;;
51872;SDS011;52863;52.504;13.480;2022-10-26T09:20:35;9.93;;;7.07;;
51872;SDS011;52863;52.504;13.480;2022-10-26T09:23:17;10.93;;;7.97;;
51872;SDS011;52863;52.504;13.480;2022-10-26T09:25:54;14.07;;;7.10;;
51872;SDS011;52863;52.504;13.480;2022-10-26T09:28:24;11.03;;;7.27;;
51872;SDS011;52863;52.504;13.480;2022-10-26T09:30:53;13.10;;;7.10;;
51872;SDS011;52863;52.504;13.480;2022-10-26T09:33:23;8.40;;;6.77;;
51872;SDS011;52863;52.504;13.480;2022-10-26T09:35:51;9.67;;;6.20;;
51872;SDS011;52863;52.504;13.480;2022-10-26T09:38:23;10.27;;;7.40;;
51872;SDS011;52863;52.504;13.480;2022-10-26T09:40:54;10.13;;;7.33;;
51872;SDS011;52863;52.504;13.480;2022-10-26T09:43:25;9.03;;;6.43;;
51872;SDS011;52863;52.504;13.480;2022-10-26T09:45:57;8.13;;;6.40;;
51872;SDS011;52863;52.504;13.480;2022-10-26T09:48:26;9.43;;;6.80;;
51872;SDS011;52863;52.504;13.480;2022-10-26T09:50:58;12.47;;;7.47;;
51872;SDS011;52863;52.504;13.480;2022-10-26T09:53:30;10.40;;;7.37;;
51872;SDS011;52863;52.504;13.480;2022-10-26T09:55:59;7.57;;;6.63;;
51872;SDS011;52863;52.504;13.480;2022-10-26T09:58:31;10.33;;;6.63;;
51872;SDS011;52863;52.504;13.480;2022-10-26T10:01:05;10.57;;;6.57;;
51872;SDS011;52863;52.504;13.480;2022-10-26T10:03:33;10.83;;;5.50;;
51872;SDS011;52863;52.504;13.480;2022-10-26T10:06:15;6.87;;;5.70;;
51872;SDS011;52863;52.504;13.480;2022-10-26T10:08:44;10.23;;;6.43;;
51872;SDS011;52863;52.504;13.480;2022-10-26T10:11:35;8.23;;;5.17;;
51872;SDS011;52863;52.504;13.480;2022-10-26T10:14:05;6.60;;;4.43;;
51872;SDS011;52863;52.504;13.480;2022-10-26T10:16:33;7.73;;;4.50;;
51872;SDS011;52863;52.504;13.480;2022-10-26T10:19:01;7.13;;;4.80;;
51872;SDS011;52863;52.504;13.480;2022-10-26T10:21:33;7.27;;;3.90;;
51872;SDS011;52863;52.504;13.480;2022-10-26T10:24:01;7.83;;;4.07;;
51872;SDS011;52863;52.504;13.480;2022-10-26T10:26:28;4.97;;;3.60;;
51872;SDS011;52863;52.504;13.480;2022-10-26T10:28:56;9.17;;;3.60;;
51872;SDS011;52863;52.504;13.480;2022-10-26T10:31:27;7.50;;;4.80;;
51872;SDS011;52863;52.504;13.480;2022-10-26T10:33:55;6.13;;;3.57;;
51872;SDS011;52863;52.504;13.480;2022-10-26T10:36:23;6.50;;;3.30;;
51872;SDS011;52863;52.504;13.480;2022-10-26T10:38:53;7.07;;;3.70;;
51872;SDS011;52863;52.504;13.480;2022-10-26T10:41:23;4.40;;;2.67;;
51872;SDS011;52863;52.504;13.480;2022-10-26T10:43:52;6.63;;;3.20;;
51872;SDS011;52863;52.504;13.480;2022-10-26T10:46:22;6.80;;;2.50;;
51872;SDS011;52863;52.504;13.480;2022-10-26T10:48:51;3.93;;;2.50;;
51872;SDS011;52863;52.504;13.480;2022-10-26T10:51:27;4.07;;;2.10;;
51872;SDS011;52863;52.504;13.480;2022-10-26T10:53:55;4.97;;;2.10;;
51872;SDS011;52863;52.504;13.480;2022-10-26T10:56:28;9.10;;;2.57;;
51872;SDS011;52863;52.504;13.480;2022-10-26T11:05:20;4.20;;;1.73;;
51872;SDS011;52863;52.504;13.480;2022-10-26T11:07:54;2.97;;;1.50;;
51872;SDS011;52863;52.504;13.480;2022-10-26T11:10:29;2.50;;;1.30;;
51872;SDS011;52863;52.504;13.480;2022-10-26T11:13:00;4.13;;;1.30;;
51872;SDS011;52863;52.504;13.480;2022-10-26T11:15:30;3.37;;;1.93;;
51872;SDS011;52863;52.504;13.480;2022-10-26T11:18:01;3.67;;;1.40;;
51872;SDS011;52863;52.504;13.480;2022-10-26T11:20:32;2.83;;;1.17;;
51872;SDS011;52863;52.504;13.480;2022-10-26T11:23:07;4.80;;;1.30;;
51872;SDS011;52863;52.504;13.480;2022-10-26T11:25:40;2.77;;;1.37;;
51872;SDS011;52863;52.504;13.480;2022-10-26T11:28:10;3.53;;;1.30;;
51872;SDS011;52863;52.504;13.480;2022-10-26T11:30:42;3.20;;;1.23;;
51872;SDS011;52863;52.504;13.480;2022-10-26T11:33:14;2.43;;;1.00;;
51872;SDS011;52863;52.504;13.480;2022-10-26T11:35:51;2.30;;;1.30;;
51872;SDS011;52863;52.504;13.480;2022-10-26T11:38:25;3.03;;;1.47;;
51872;SDS011;52863;52.504;13.480;2022-10-26T11:41:18;5.33;;;1.50;;
51872;SDS011;52863;52.504;13.480;2022-10-26T11:43:49;4.07;;;1.33;;
51872;SDS011;52863;52.504;13.480;2022-10-26T11:46:22;2.03;;;1.10;;
51872;SDS011;52863;52.504;13.480;2022-10-26T11:48:54;2.83;;;1.20;;
51872;SDS011;52863;52.504;13.480;2022-10-26T11:51:32;2.33;;;1.23;;
51872;SDS011;52863;52.504;13.480;2022-10-26T11:54:07;3.30;;;1.40;;
51872;SDS011;52863;52.504;13.480;2022-10-26T11:56:39;3.53;;;1.53;;
51872;SDS011;52863;52.504;13.480;2022-10-26T11:59:13;5.57;;;1.60;;
51872;SDS011;52863;52.504;13.480;2022-10-26T12:01:44;4.13;;;3.10;;
51872;SDS011;52863;52.504;13.480;2022-10-26T12:04:15;6.67;;;3.90;;
51872;SDS011;52863;52.504;13.480;2022-10-26T12:06:43;4.43;;;1.43;;
51872;SDS011;52863;52.504;13.480;2022-10-26T12:09:15;4.10;;;1.50;;
51872;SDS011;52863;52.504;13.480;2022-10-26T12:11:45;4.17;;;1.40;;
51872;SDS011;52863;52.504;13.480;2022-10-26T12:14:18;4.67;;;1.30;;
51872;SDS011;52863;52.504;13.480;2022-10-26T12:16:51;3.53;;;1.17;;
51872;SDS011;52863;52.504;13.480;2022-10-26T12:19:25;2.67;;;1.20;;
51872;SDS011;52863;52.504;13.480;2022-10-26T12:21:56;4.40;;;1.40;;
51872;SDS011;52863;52.504;13.480;2022-10-26T12:24:25;5.67;;;1.30;;
51872;SDS011;52863;52.504;13.480;2022-10-26T12:26:53;2.80;;;1.20;;
51872;SDS011;52863;52.504;13.480;2022-10-26T12:29:26;3.53;;;1.10;;
51872;SDS011;52863;52.504;13.480;2022-10-26T12:32:01;2.47;;;1.40;;
51872;SDS011;52863;52.504;13.480;2022-10-26T12:37:29;2.40;;;1.20;;
51872;SDS011;52863;52.504;13.480;2022-10-26T12:52:38;1.90;;;1.27;;
51872;SDS011;52863;52.504;13.480;2022-10-26T13:04:19;2.07;;;1.40;;
51872;SDS011;52863;52.504;13.480;2022-10-26T13:07:15;4.80;;;1.70;;
51872;SDS011;52863;52.504;13.480;2022-10-26T13:09:52;5.10;;;1.30;;
51872;SDS011;52863;52.504;13.480;2022-10-26T13:12:26;4.73;;;1.83;;
51872;SDS011;52863;52.504;13.480;2022-10-26T13:15:02;4.23;;;1.60;;
51872;SDS011;52863;52.504;13.480;2022-10-26T13:17:31;4.73;;;1.50;;
51872;SDS011;52863;52.504;13.480;2022-10-26T13:20:05;2.37;;;1.40;;
51872;SDS011;52863;52.504;13.480;2022-10-26T13:22:43;3.80;;;1.20;;
51872;SDS011;52863;52.504;13.480;2022-10-26T13:25:17;3.57;;;1.30;;
51872;SDS011;52863;52.504;13.480;2022-10-26T13:27:56;3.40;;;1.27;;
51872;SDS011;52863;52.504;13.480;2022-10-26T13:33:25;4.00;;;1.63;;
51872;SDS011;52863;52.504;13.480;2022-10-26T13:36:00;2.73;;;1.47;;
51872;SDS011;52863;52.504;13.480;2022-10-26T13:38:31;2.90;;;1.50;;
51872;SDS011;52863;52.504;13.480;2022-10-26T13:41:04;2.60;;;1.30;;
51872;SDS011;52863;52.504;13.480;2022-10-26T13:43:38;2.40;;;1.50;;
51872;SDS011;52863;52.504;13.480;2022-10-26T13:46:05;5.27;;;1.53;;
51872;SDS011;52863;52.504;13.480;2022-10-26T13:48:44;3.87;;;1.37;;
51872;SDS011;52863;52.504;13.480;2022-10-26T13:51:13;4.33;;;1.43;;
51872;SDS011;52863;52.504;13.480;2022-10-26T13:53:47;2.73;;;1.63;;
51872;SDS011;52863;52.504;13.480;2022-10-26T13:56:21;2.63;;;1.37;;
51872;SDS011;52863;52.504;13.480;2022-10-26T13:58:55;1.80;;;1.70;;
51872;SDS011;52863;52.504;13.480;2022-10-26T14:01:25;3.20;;;1.50;;
51872;SDS011;52863;52.504;13.480;2022-10-26T14:03:53;6.37;;;1.63;;
51872;SDS011;52863;52.504;13.480;2022-10-26T14:06:22;5.77;;;1.90;;
51872;SDS011;52863;52.504;13.480;2022-10-26T14:08:52;2.93;;;1.53;;
51872;SDS011;52863;52.504;13.480;2022-10-26T14:11:24;3.33;;;1.60;;
51872;SDS011;52863;52.504;13.480;2022-10-26T14:13:58;7.03;;;2.13;;
51872;SDS011;52863;52.504;13.480;2022-10-26T14:16:26;2.37;;;1.50;;
51872;SDS011;52863;52.504;13.480;2022-10-26T14:18:55;3.97;;;1.53;;
51872;SDS011;52863;52.504;13.480;2022-10-26T14:21:23;4.27;;;1.70;;
51872;SDS011;52863;52.504;13.480;2022-10-26T14:23:51;3.07;;;1.40;;
51872;SDS011;52863;52.504;13.480;2022-10-26T14:26:21;4.47;;;1.63;;
51872;SDS011;52863;52.504;13.480;2022-10-26T14:28:49;2.60;;;1.70;;
51872;SDS011;52863;52.504;13.480;2022-10-26T14:31:19;1.87;;;1.43;;
51872;SDS011;52863;52.504;13.480;2022-10-26T14:33:53;3.97;;;1.60;;
51872;SDS011;52863;52.504;13.480;2022-10-26T14:36:21;4.20;;;1.53;;
51872;SDS011;52863;52.504;13.480;2022-10-26T14:38:52;4.37;;;2.00;;
51872;SDS011;52863;52.504;13.480;2022-10-26T14:41:23;2.40;;;1.53;;
51872;SDS011;52863;52.504;13.480;2022-10-26T14:43:51;4.60;;;2.53;;
51872;SDS011;52863;52.504;13.480;2022-10-26T14:46:20;4.37;;;2.23;;
51872;SDS011;52863;52.504;13.480;2022-10-26T14:48:51;4.23;;;1.80;;
51872;SDS011;52863;52.504;13.480;2022-10-26T14:51:21;6.47;;;1.93;;
51872;SDS011;52863;52.504;13.480;2022-10-26T14:53:52;7.43;;;1.70;;
51872;SDS011;52863;52.504;13.480;2022-10-26T14:56:21;3.70;;;1.30;;
51872;SDS011;52863;52.504;13.480;2022-10-26T14:58:50;2.70;;;1.47;;
51872;SDS011;52863;52.504;13.480;2022-10-26T15:01:24;4.20;;;1.50;;
51872;SDS011;52863;52.504;13.480;2022-10-26T15:03:58;3.43;;;1.40;;
51872;SDS011;52863;52.504;13.480;2022-10-26T15:11:56;4.00;;;1.50;;
51872;SDS011;52863;52.504;13.480;2022-10-26T15:14:23;3.00;;;1.60;;
51872;SDS011;52863;52.504;13.480;2022-10-26T15:16:52;2.90;;;1.60;;
51872;SDS011;52863;52.504;13.480;2022-10-26T15:19:21;5.40;;;2.40;;
51872;SDS011;52863;52.504;13.480;2022-10-26T15:21:48;3.30;;;1.70;;
51872;SDS011;52863;52.504;13.480;2022-10-26T15:24:23;3.33;;;1.47;;
51872;SDS011;52863;52.504;13.480;2022-10-26T15:26:55;3.40;;;1.60;;